createdAt,value
2023-02-03T00:00:01.896Z,101517.88
2023-02-03T00:02:39.585Z,101517.88
2023-02-03T00:05:08.977Z,101514.38
2023-02-03T00:07:40.712Z,101528.50
2023-02-03T00:10:09.568Z,101519.69
2023-02-03T00:12:37.673Z,101521.44
2023-02-03T00:15:06.331Z,101524.06
2023-02-03T00:17:37.214Z,101525.84
2023-02-03T00:20:08.237Z,101522.28
2023-02-03T00:22:36.188Z,101528.44
2023-02-03T00:25:06.247Z,101534.59
2023-02-03T00:27:35.048Z,101530.16
2023-02-03T00:30:03.129Z,101516.06
2023-02-03T00:32:31.568Z,101508.94
2023-02-03T00:35:01.878Z,101500.13
2023-02-03T00:37:29.753Z,101486.00
2023-02-03T00:39:57.703Z,101476.28
2023-02-03T00:42:27.035Z,101478.94
2023-02-03T00:44:55.127Z,101484.25
2023-02-03T00:47:23.378Z,101464.81
2023-02-03T00:49:51.845Z,101474.56
2023-02-03T00:52:19.995Z,101487.81
2023-02-03T00:54:47.828Z,101493.13
2023-02-03T00:57:16.088Z,101493.16
2023-02-03T00:59:45.383Z,101496.72
2023-02-03T01:02:13.387Z,101498.50
2023-02-03T01:04:41.323Z,101505.56
2023-02-03T01:07:09.445Z,101494.09
2023-02-03T01:09:38.359Z,101484.34
2023-02-03T01:12:06.853Z,101485.25
2023-02-03T01:14:37.428Z,101488.78
2023-02-03T01:17:06.917Z,101470.22
2023-02-03T01:19:34.918Z,101455.19
2023-02-03T01:22:02.810Z,101456.09
2023-02-03T01:24:33.446Z,101441.94
2023-02-03T01:27:06.285Z,101430.41
2023-02-03T01:29:34.312Z,101407.44
2023-02-03T01:32:02.263Z,101413.59
2023-02-03T01:34:31.677Z,101416.25
2023-02-03T01:37:00.607Z,101405.66
2023-02-03T01:39:29.625Z,101433.97
2023-02-03T01:41:58.037Z,101434.84
2023-02-03T01:44:44.070Z,101448.09
2023-02-03T01:47:19.688Z,101464.91
2023-02-03T01:49:55.121Z,101454.34
2023-02-03T01:52:23.311Z,101457.81
2023-02-03T01:54:53.303Z,101455.22
2023-02-03T01:57:26.169Z,101452.53
2023-02-03T01:59:59.027Z,101441.91
2023-02-03T02:02:33.462Z,101437.47
2023-02-03T02:05:07.962Z,101440.19
2023-02-03T02:07:38.741Z,101437.53
2023-02-03T02:10:07.499Z,101431.34
2023-02-03T02:12:35.601Z,101430.44
2023-02-03T02:15:04.453Z,101428.69
2023-02-03T02:18:10.010Z,101428.69
2023-02-03T02:21:11.186Z,101424.25
2023-02-03T02:24:13.337Z,101414.53
2023-02-03T02:26:52.762Z,101418.94
2023-02-03T02:29:48.005Z,101425.13
2023-02-03T02:32:29.795Z,101411.88
2023-02-03T02:35:10.418Z,101413.66
2023-02-03T02:37:51.102Z,101413.63
2023-02-03T02:40:27.342Z,101411.88
2023-02-03T02:43:05.962Z,101416.28
2023-02-03T02:45:46.002Z,101424.25
2023-02-03T02:48:22.511Z,101439.31
2023-02-03T02:50:54.457Z,101439.31
2023-02-03T02:53:26.913Z,101433.97
2023-02-03T02:56:00.650Z,101434.88
2023-02-03T02:58:31.979Z,101438.41
2023-02-03T03:01:00.093Z,101432.22
2023-02-03T03:03:29.666Z,101437.50
2023-02-03T03:06:03.118Z,101450.78
2023-02-03T03:08:40.806Z,101464.97
2023-02-03T03:11:08.872Z,101468.50
2023-02-03T03:13:40.759Z,101474.66
2023-02-03T03:16:12.302Z,101482.63
2023-02-03T03:18:48.262Z,101496.75
2023-02-03T03:21:19.058Z,101487.97
2023-02-03T03:23:52.915Z,101487.94
2023-02-03T03:26:29.456Z,101494.13
2023-02-03T03:29:04.655Z,101485.28
2023-02-03T03:31:32.835Z,101464.03
2023-02-03T03:34:02.519Z,101471.09
2023-02-03T03:36:34.199Z,101468.44
2023-02-03T03:39:10.830Z,101469.34
2023-02-03T03:41:47.628Z,101468.47
2023-02-03T03:44:20.076Z,101459.66
2023-02-03T03:46:54.652Z,101449.91
2023-02-03T03:49:26.045Z,101451.66
2023-02-03T03:51:59.495Z,101457.00
2023-02-03T03:54:29.694Z,101458.75
2023-02-03T03:57:01.907Z,101449.91
2023-02-03T03:59:37.140Z,101443.72
2023-02-03T04:02:05.555Z,101445.47
2023-02-03T04:04:39.076Z,101448.13
2023-02-03T04:07:07.376Z,101449.94
2023-02-03T04:09:36.629Z,101448.13
2023-02-03T04:12:06.187Z,101459.66
2023-02-03T04:14:38.853Z,101462.28
2023-02-03T04:17:07.939Z,101457.84
2023-02-03T04:19:37.345Z,101444.59
2023-02-03T04:22:09.368Z,101434.88
2023-02-03T04:24:37.477Z,101426.03
2023-02-03T04:27:05.572Z,101432.22
2023-02-03T04:29:33.914Z,101428.69
2023-02-03T04:32:02.382Z,101447.28
2023-02-03T04:34:33.168Z,101442.81
2023-02-03T04:37:02.432Z,101440.16
2023-02-03T04:39:32.878Z,101443.72
2023-02-03T04:42:02.996Z,101446.38
2023-02-03T04:44:31.196Z,101445.50
2023-02-03T04:46:59.218Z,101454.31
2023-02-03T04:49:27.073Z,101441.94
2023-02-03T04:53:34.130Z,101437.53
2023-02-03T04:56:02.456Z,101441.94
2023-02-03T04:58:30.433Z,101440.19
2023-02-03T05:00:58.592Z,101419.81
2023-02-03T05:03:28.948Z,101444.63
2023-02-03T05:06:03.445Z,101437.53
2023-02-03T05:08:35.216Z,101447.25
2023-02-03T05:11:04.712Z,101450.81
2023-02-03T05:13:33.760Z,101456.13
2023-02-03T05:16:04.045Z,101466.72
2023-02-03T05:18:34.145Z,101458.75
2023-02-03T05:21:02.227Z,101454.31
2023-02-03T05:23:30.346Z,101454.31
2023-02-03T05:26:01.939Z,101475.56
2023-02-03T05:28:29.857Z,101471.16
2023-02-03T05:30:59.268Z,101458.75
2023-02-03T05:33:27.400Z,101450.78
2023-02-03T05:35:58.000Z,101447.25
2023-02-03T05:38:26.304Z,101433.97
2023-02-03T05:41:12.188Z,101418.03
2023-02-03T05:43:41.447Z,101416.28
2023-02-03T05:46:09.424Z,101438.38
2023-02-03T05:48:37.566Z,101453.41
2023-02-03T05:51:05.993Z,101438.38
2023-02-03T05:53:33.876Z,101448.97
2023-02-03T05:56:02.148Z,101441.91
2023-02-03T05:58:30.243Z,101441.03
2023-02-03T06:00:59.686Z,101422.44
2023-02-03T06:03:27.825Z,101406.53
2023-02-03T06:05:56.704Z,101409.19
2023-02-03T06:08:28.601Z,101397.69
2023-02-03T06:10:59.891Z,101403.00
2023-02-03T06:13:28.745Z,101409.19
2023-02-03T06:15:57.498Z,101405.66
2023-02-03T06:18:29.065Z,101403.00
2023-02-03T06:20:57.294Z,101412.75
2023-02-03T06:23:25.352Z,101419.81
2023-02-03T06:25:53.658Z,101400.34
2023-02-03T06:28:21.710Z,101401.22
2023-02-03T06:30:51.748Z,101383.53
2023-02-03T06:33:22.172Z,101387.13
2023-02-03T06:35:51.857Z,101391.53
2023-02-03T06:38:19.851Z,101378.28
2023-02-03T06:40:48.192Z,101390.66
2023-02-03T06:43:16.525Z,101404.81
2023-02-03T06:45:47.106Z,101411.88
2023-02-03T06:48:17.997Z,101402.16
2023-02-03T06:50:48.828Z,101414.53
2023-02-03T06:53:19.870Z,101422.50
2023-02-03T06:55:48.847Z,101429.56
2023-02-03T06:58:17.101Z,101434.00
2023-02-03T07:00:45.104Z,101428.69
2023-02-03T07:03:13.375Z,101440.19
2023-02-03T07:05:43.809Z,101457.84
2023-02-03T07:08:11.949Z,101456.13
2023-02-03T07:10:41.878Z,101464.06
2023-02-03T07:13:10.128Z,101456.13
2023-02-03T07:15:38.397Z,101448.13
2023-02-03T07:18:06.624Z,101457.00
2023-02-03T07:20:37.641Z,101453.44
2023-02-03T07:23:05.701Z,101456.09
2023-02-03T07:25:33.738Z,101456.09
2023-02-03T07:28:03.492Z,101459.63
2023-02-03T07:30:31.621Z,101458.75
2023-02-03T07:32:59.766Z,101470.25
2023-02-03T07:35:28.263Z,101474.69
2023-02-03T07:38:00.917Z,101465.84
2023-02-03T07:40:29.077Z,101470.25
2023-02-03T07:42:57.474Z,101469.34
2023-02-03T07:45:26.985Z,101454.34
2023-02-03T07:47:55.001Z,101457.84
2023-02-03T07:50:25.493Z,101472.03
2023-02-03T07:52:56.657Z,101475.56
2023-02-03T07:55:24.656Z,101474.66
2023-02-03T07:57:54.749Z,101468.47
2023-02-03T08:00:23.438Z,101457.88
2023-02-03T08:02:53.548Z,101460.50
2023-02-03T08:05:21.639Z,101466.69
2023-02-03T08:07:52.434Z,101479.09
2023-02-03T08:10:20.637Z,101473.78
2023-02-03T08:12:48.744Z,101468.47
2023-02-03T08:15:17.298Z,101476.44
2023-02-03T08:17:46.434Z,101473.78
2023-02-03T08:20:18.803Z,101474.66
2023-02-03T08:22:46.870Z,101483.53
2023-02-03T08:25:17.194Z,101472.00
2023-02-03T08:27:45.600Z,101471.09
2023-02-03T08:30:15.296Z,101475.53
2023-02-03T08:32:43.463Z,101466.69
2023-02-03T08:35:11.655Z,101477.28
2023-02-03T08:37:41.403Z,101471.97
2023-02-03T08:40:10.532Z,101469.34
2023-02-03T08:42:38.759Z,101467.56
2023-02-03T08:45:08.133Z,101478.16
2023-02-03T08:47:38.111Z,101472.81
2023-02-03T08:50:08.085Z,101468.41
2023-02-03T08:52:36.435Z,101460.44
2023-02-03T08:55:06.535Z,101469.28
2023-02-03T08:57:35.335Z,101460.41
2023-02-03T09:00:05.197Z,101466.59
2023-02-03T09:02:33.407Z,101463.94
2023-02-03T09:05:01.482Z,101466.59
2023-02-03T09:07:32.070Z,101473.66
2023-02-03T09:10:00.065Z,101470.16
2023-02-03T09:12:29.469Z,101466.59
2023-02-03T09:14:57.480Z,101458.63
2023-02-03T09:17:25.639Z,101455.94
2023-02-03T09:19:55.761Z,101450.59
2023-02-03T09:22:24.300Z,101455.91
2023-02-03T09:24:52.481Z,101464.75
2023-02-03T09:27:20.682Z,101462.06
2023-02-03T09:29:50.154Z,101455.00
2023-02-03T09:32:18.489Z,101452.31
2023-02-03T09:34:47.036Z,101470.91
2023-02-03T09:37:14.925Z,101451.41
2023-02-03T09:39:43.273Z,101459.41
2023-02-03T09:42:34.869Z,101456.69
2023-02-03T09:45:15.849Z,101455.78
2023-02-03T09:47:45.282Z,101439.84
2023-02-03T09:50:20.806Z,101438.00
2023-02-03T09:54:43.410Z,101452.13
2023-02-03T09:57:17.981Z,101460.03
2023-02-03T09:59:46.206Z,101461.03
2023-02-03T10:02:29.917Z,101468.97
2023-02-03T10:05:02.959Z,101462.78
2023-02-03T10:07:43.237Z,101466.38
2023-02-03T10:10:23.267Z,101466.38
2023-02-03T10:13:10.642Z,101454.91
2023-02-03T10:16:18.587Z,101445.16
2023-02-03T10:18:51.464Z,101452.22
2023-02-03T10:21:33.837Z,101450.44
2023-02-03T10:24:04.841Z,101460.19
2023-02-03T10:26:36.576Z,101465.53
2023-02-03T10:29:20.580Z,101460.19
2023-02-03T10:31:49.330Z,101453.09
2023-02-03T10:34:19.924Z,101437.13
2023-02-03T10:36:55.992Z,101436.25
2023-02-03T10:39:33.089Z,101446.00
2023-02-03T10:42:05.417Z,101445.06
2023-02-03T10:44:40.792Z,101431.78
2023-02-03T10:47:21.719Z,101430.88
2023-02-03T10:49:52.518Z,101421.97
2023-02-03T10:52:31.116Z,101421.97
2023-02-03T10:55:00.503Z,101401.56
2023-02-03T10:57:32.545Z,101412.16
2023-02-03T11:00:22.488Z,101407.72
2023-02-03T11:02:57.576Z,101417.44
2023-02-03T11:05:26.600Z,101417.47
2023-02-03T11:07:55.755Z,101409.50
2023-02-03T11:10:36.095Z,101418.34
2023-02-03T11:13:17.133Z,101413.00
2023-02-03T11:15:52.686Z,101403.31
2023-02-03T11:18:34.904Z,101406.88
2023-02-03T11:21:08.476Z,101409.56
2023-02-03T11:23:45.909Z,101416.66
2023-02-03T11:26:16.652Z,101422.03
2023-02-03T11:28:51.637Z,101430.03
2023-02-03T11:31:23.646Z,101427.38
2023-02-03T11:33:56.333Z,101430.00
2023-02-03T11:36:29.264Z,101430.91
2023-02-03T11:39:19.887Z,101427.41
2023-02-03T11:41:49.921Z,101419.44
2023-02-03T11:44:22.654Z,101436.22
2023-02-03T11:46:54.771Z,101438.88
2023-02-03T11:50:07.576Z,101425.56
2023-02-03T11:52:51.321Z,101422.03
2023-02-03T11:55:42.311Z,101422.00
2023-02-03T11:58:29.145Z,101409.56
2023-02-03T12:01:07.177Z,101401.53
2023-02-03T12:04:07.086Z,101392.59
2023-02-03T12:06:48.271Z,101389.13
2023-02-03T12:09:29.616Z,101390.88
2023-02-03T12:12:19.038Z,101376.69
2023-02-03T12:15:01.095Z,101382.03
2023-02-03T12:17:44.889Z,101361.66
2023-02-03T12:20:28.325Z,101353.63
2023-02-03T12:23:07.295Z,101350.00
2023-02-03T12:25:50.115Z,101357.09
2023-02-03T12:28:33.987Z,101375.69
2023-02-03T12:31:10.583Z,101365.13
2023-02-03T12:33:46.028Z,101373.09
2023-02-03T12:36:19.215Z,101370.50
2023-02-03T12:38:54.732Z,101370.53
2023-02-03T12:41:27.383Z,101364.38
2023-02-03T12:44:01.587Z,101361.72
2023-02-03T12:46:33.337Z,101355.59
2023-02-03T12:49:06.884Z,101358.19
2023-02-03T12:51:42.609Z,101342.28
2023-02-03T12:54:28.714Z,101341.41
2023-02-03T12:57:09.223Z,101330.78
2023-02-03T12:59:39.658Z,101331.63
2023-02-03T13:02:18.419Z,101325.41
2023-02-03T13:04:56.005Z,101324.47
2023-02-03T13:07:30.203Z,101333.25
2023-02-03T13:10:03.481Z,101327.94
2023-02-03T13:12:41.469Z,101335.88
2023-02-03T13:15:24.879Z,101334.97
2023-02-03T13:17:58.430Z,101344.69
2023-02-03T13:20:31.557Z,101334.06
2023-02-03T13:22:59.983Z,101327.88
2023-02-03T13:25:39.973Z,101347.28
2023-02-03T13:28:20.163Z,101344.78
2023-02-03T13:31:09.805Z,101339.47
2023-02-03T13:33:52.125Z,101328.88
2023-02-03T13:36:55.077Z,101320.91
2023-02-03T13:39:51.941Z,101313.84
2023-02-03T13:42:25.884Z,101308.50
2023-02-03T13:44:58.218Z,101306.75
2023-02-03T13:47:30.070Z,101298.84
2023-02-03T13:50:05.717Z,101318.28
2023-02-03T13:52:39.239Z,101314.81
2023-02-03T13:55:08.431Z,101315.69
2023-02-03T13:57:39.195Z,101320.13
2023-02-03T14:00:28.971Z,101322.75
2023-02-03T14:02:57.772Z,101329.84
2023-02-03T14:05:44.371Z,101330.72
2023-02-03T14:08:49.018Z,101322.78
2023-02-03T14:11:56.968Z,101318.31
2023-02-03T14:15:04.466Z,101320.94
2023-02-03T14:18:06.657Z,101320.13
2023-02-03T14:20:44.257Z,101320.13
2023-02-03T14:23:17.751Z,101311.22
2023-02-03T14:25:49.508Z,101316.50
2023-02-03T14:28:21.305Z,101313.84
2023-02-03T14:31:15.008Z,101310.25
2023-02-03T14:34:13.068Z,101319.06
2023-02-03T14:36:55.109Z,101304.97
2023-02-03T14:39:48.783Z,101323.44
2023-02-03T14:42:30.116Z,101310.94
2023-02-03T14:45:12.139Z,101320.75
2023-02-03T14:48:00.609Z,101308.25
2023-02-03T14:50:45.801Z,101312.69
2023-02-03T14:55:46.434Z,101317.16
2023-02-03T14:58:24.589Z,101335.84
2023-02-03T15:00:54.546Z,101307.66
2023-02-03T15:03:25.443Z,101338.56
2023-02-03T15:05:56.434Z,101335.06
2023-02-03T15:08:40.871Z,101337.72
2023-02-03T15:11:28.296Z,101347.53
2023-02-03T15:13:58.524Z,101348.44
2023-02-03T15:16:27.260Z,101329.03
2023-02-03T15:18:57.507Z,101334.31
2023-02-03T15:21:26.549Z,101326.34
2023-02-03T15:23:55.416Z,101327.25
2023-02-03T15:26:25.324Z,101328.13
2023-02-03T15:29:00.152Z,101326.38
2023-02-03T15:31:34.398Z,101331.69
2023-02-03T15:34:13.405Z,101332.56
2023-02-03T15:36:45.239Z,101331.72
2023-02-03T15:39:23.784Z,101335.22
2023-02-03T15:41:54.996Z,101335.19
2023-02-03T15:44:30.679Z,101337.88
2023-02-03T15:47:01.152Z,101347.66
2023-02-03T15:49:34.801Z,101342.34
2023-02-03T15:52:04.638Z,101345.94
2023-02-03T15:54:41.023Z,101358.34
2023-02-03T15:57:18.423Z,101362.81
2023-02-03T15:59:54.785Z,101368.13
2023-02-03T16:02:28.482Z,101355.75
2023-02-03T16:04:57.139Z,101354.00
2023-02-03T16:07:28.069Z,101346.03
2023-02-03T16:09:57.853Z,101356.66
2023-02-03T16:12:27.535Z,101334.63
2023-02-03T16:14:59.021Z,101374.41
2023-02-03T16:17:30.152Z,101372.66
2023-02-03T16:20:24.695Z,101374.44
2023-02-03T16:23:04.675Z,101377.09
2023-02-03T16:25:35.014Z,101379.75
2023-02-03T16:28:23.345Z,101385.94
2023-02-03T16:31:16.193Z,101382.47
2023-02-03T16:34:04.505Z,101397.47
2023-02-03T16:36:50.374Z,101413.41
2023-02-03T16:39:38.259Z,101414.28
2023-02-03T16:42:32.436Z,101411.63
2023-02-03T16:45:17.750Z,101427.59
2023-02-03T16:48:06.060Z,101421.38
2023-02-03T16:50:52.825Z,101424.03
2023-02-03T16:53:24.377Z,101421.38
2023-02-03T16:55:54.943Z,101424.03
2023-02-03T16:58:23.659Z,101418.69
2023-02-03T17:00:53.633Z,101421.38
2023-02-03T17:03:25.531Z,101427.59
2023-02-03T17:05:54.691Z,101424.09
2023-02-03T17:08:25.154Z,101414.38
2023-02-03T17:10:53.938Z,101409.97
2023-02-03T17:13:24.383Z,101408.19
2023-02-03T17:15:53.799Z,101392.28
2023-02-03T17:18:23.824Z,101400.25
2023-02-03T17:20:52.602Z,101409.13
2023-02-03T17:23:21.309Z,101407.38
2023-02-03T17:25:50.929Z,101417.09
2023-02-03T17:28:19.111Z,101405.59
2023-02-03T17:30:47.127Z,101402.94
2023-02-03T17:33:15.822Z,101403.81
2023-02-03T17:35:46.132Z,101414.44
2023-02-03T17:38:15.497Z,101406.47
2023-02-03T17:54:43.129Z,101410.88
2023-02-03T17:57:11.214Z,101413.53
2023-02-03T17:59:39.766Z,101412.66
2023-02-03T18:02:08.092Z,101415.31
2023-02-03T18:04:36.944Z,101419.72
2023-02-03T18:07:06.280Z,101419.72
2023-02-03T18:09:34.399Z,101420.59
2023-02-03T18:12:02.428Z,101418.81
2023-02-03T18:14:30.819Z,101424.13
2023-02-03T18:17:00.937Z,101424.13
2023-02-03T18:19:29.722Z,101416.16
2023-02-03T18:21:59.684Z,101421.50
2023-02-03T18:24:30.071Z,101430.31
2023-02-03T18:27:00.301Z,101413.47
2023-02-03T18:29:29.554Z,101424.13
2023-02-03T18:31:57.572Z,101412.59
2023-02-03T18:34:25.865Z,101418.78
2023-02-03T18:36:53.929Z,101409.03
2023-02-03T18:39:21.934Z,101414.34
2023-02-03T18:41:51.269Z,101424.09
2023-02-03T18:44:19.588Z,101429.38
2023-02-03T18:46:47.968Z,101417.88
2023-02-03T18:49:16.162Z,101417.00
2023-02-03T18:51:44.193Z,101411.69
2023-02-03T18:54:13.428Z,101420.53
2023-02-03T18:56:41.374Z,101417.88
2023-02-03T18:59:12.124Z,101424.06
2023-02-03T19:01:40.699Z,101432.06
2023-02-03T19:04:09.256Z,101419.66
2023-02-03T19:06:37.505Z,101428.50
2023-02-03T19:09:06.581Z,101432.91
2023-02-03T19:11:36.870Z,101444.44
2023-02-03T19:14:05.293Z,101443.56
2023-02-03T19:16:34.736Z,101453.31
2023-02-03T19:19:02.951Z,101450.66
2023-02-03T19:21:34.144Z,101454.19
2023-02-03T19:24:02.299Z,101449.78
2023-02-03T19:26:33.375Z,101461.28
2023-02-03T19:29:01.345Z,101468.38
2023-02-03T19:31:35.866Z,101472.78
2023-02-03T19:34:03.931Z,101479.91
2023-02-03T19:36:32.391Z,101484.28
2023-02-03T19:39:00.388Z,101481.63
2023-02-03T19:41:30.756Z,101484.28
2023-02-03T19:44:00.969Z,101472.75
2023-02-03T19:46:33.047Z,101482.47
2023-02-03T19:49:06.508Z,101486.88
2023-02-03T19:51:35.551Z,101486.03
2023-02-03T19:56:34.687Z,101503.75
2023-02-03T19:59:03.321Z,101500.25
2023-02-03T20:01:31.969Z,101501.13
2023-02-03T20:04:00.061Z,101503.78
2023-02-03T20:06:29.113Z,101503.78
2023-02-03T20:08:57.189Z,101510.00
2023-02-03T20:11:25.536Z,101518.84
2023-02-03T20:13:57.748Z,101520.63
2023-02-03T20:16:26.018Z,101517.09
2023-02-03T20:18:56.516Z,101524.16
2023-02-03T20:21:24.861Z,101514.38
2023-02-03T20:23:53.698Z,101517.94
2023-02-03T20:26:22.297Z,101521.44
2023-02-03T20:28:50.522Z,101515.25
2023-02-03T20:31:21.523Z,101519.63
2023-02-03T20:33:50.736Z,101522.28
2023-02-03T20:36:18.846Z,101531.09
2023-02-03T20:38:47.835Z,101532.81
2023-02-03T20:41:18.760Z,101530.16
2023-02-03T20:43:47.044Z,101531.00
2023-02-03T20:46:16.898Z,101532.75
2023-02-03T20:48:48.525Z,101530.09
2023-02-03T20:51:21.004Z,101532.75
2023-02-03T20:53:49.994Z,101527.41
2023-02-03T20:56:21.401Z,101542.50
2023-02-03T20:58:49.872Z,101539.88
2023-02-03T21:01:19.935Z,101552.28
2023-02-03T21:04:10.670Z,101558.47
2023-02-03T21:06:40.000Z,101553.13
2023-02-03T21:09:15.438Z,101555.84
2023-02-03T21:11:44.131Z,101562.91
2023-02-03T21:14:21.024Z,101562.94
2023-02-03T21:16:53.977Z,101574.47
2023-02-03T21:19:29.767Z,101570.94
2023-02-03T21:21:58.524Z,101578.03
2023-02-03T21:24:29.436Z,101578.03
2023-02-03T21:27:01.269Z,101576.25
2023-02-03T21:29:32.637Z,101573.63
2023-02-03T21:32:01.897Z,101569.19
2023-02-03T21:34:35.457Z,101568.31
2023-02-03T21:37:15.991Z,101561.22
2023-02-03T21:39:47.567Z,101563.91
2023-02-03T21:42:41.986Z,101530.25
2023-02-03T21:45:36.901Z,101541.75
2023-02-03T21:48:33.227Z,101535.56
2023-02-03T21:51:15.224Z,101535.56
2023-02-03T21:53:51.415Z,101536.41
2023-02-03T21:56:21.747Z,101536.41
2023-02-03T21:58:50.942Z,101537.28
2023-02-03T22:01:23.232Z,101542.63
2023-02-03T22:03:53.813Z,101545.28
2023-02-03T22:06:29.550Z,101552.34
2023-02-03T22:08:59.591Z,101564.75
2023-02-03T22:11:29.162Z,101571.84
2023-02-03T22:13:57.865Z,101576.28
2023-02-03T22:16:28.303Z,101582.50
2023-02-03T22:18:59.341Z,101575.41
2023-02-03T22:21:30.325Z,101569.16
2023-02-03T22:24:00.771Z,101576.28
2023-02-03T22:26:29.248Z,101579.84
2023-02-03T22:28:57.530Z,101591.34
2023-02-03T22:31:25.751Z,101597.53
2023-02-03T22:33:54.417Z,101596.69
2023-02-03T22:36:25.887Z,101595.81
2023-02-03T22:38:55.382Z,101601.13
2023-02-03T22:41:23.356Z,101602.00
2023-02-03T22:43:51.399Z,101604.63
2023-02-03T22:46:20.162Z,101610.84
2023-02-03T22:48:48.494Z,101613.47
2023-02-03T22:51:16.577Z,101609.94
2023-02-03T22:53:47.632Z,101616.16
2023-02-03T22:56:17.121Z,101619.69
2023-02-03T22:58:45.360Z,101625.03
2023-02-03T23:01:13.559Z,101616.16
2023-02-03T23:03:41.805Z,101622.38
2023-02-03T23:06:10.458Z,101636.56
2023-02-03T23:08:40.815Z,101644.53
2023-02-03T23:11:09.308Z,101633.91
2023-02-03T23:13:38.821Z,101652.53
2023-02-03T23:16:07.409Z,101648.97
2023-02-03T23:18:35.587Z,101649.91
2023-02-03T23:21:03.863Z,101650.75
2023-02-03T23:23:31.772Z,101649.00
2023-02-03T23:26:02.451Z,101649.88
2023-02-03T23:28:30.780Z,101649.84
2023-02-03T23:31:00.097Z,101636.56
2023-02-03T23:33:28.533Z,101649.00
2023-02-03T23:35:55.672Z,101650.75
2023-02-03T23:38:24.008Z,101643.66
2023-02-03T23:40:54.094Z,101656.97
2023-02-03T23:43:22.546Z,101657.84
2023-02-03T23:45:50.619Z,101655.22
2023-02-03T23:48:20.024Z,101660.50
2023-02-03T23:50:49.022Z,101663.16
2023-02-03T23:53:20.791Z,101649.00
2023-02-03T23:55:49.142Z,101654.31
2023-02-03T23:58:17.281Z,101645.47
